sensor_id;sensor_type;location;lat;lon;timestamp;P1;durP1;ratioP1;P2;durP2;ratioP2
20697;SDS011;10508;50.956;4.640;2022-08-14T00:02:14;4.60;;;2.90;;
20697;SDS011;10508;50.956;4.640;2022-08-14T00:04:40;8.15;;;2.95;;
20697;SDS011;10508;50.956;4.640;2022-08-14T00:07:06;3.25;;;2.70;;
20697;SDS011;10508;50.956;4.640;2022-08-14T00:09:32;3.90;;;2.83;;
20697;SDS011;10508;50.956;4.640;2022-08-14T00:11:59;6.43;;;3.20;;
20697;SDS011;10508;50.956;4.640;2022-08-14T00:14:25;6.07;;;3.35;;
20697;SDS011;10508;50.956;4.640;2022-08-14T00:16:52;3.80;;;3.00;;
20697;SDS011;10508;50.956;4.640;2022-08-14T00:19:19;3.67;;;2.78;;
20697;SDS011;10508;50.956;4.640;2022-08-14T00:21:46;4.60;;;2.90;;
20697;SDS011;10508;50.956;4.640;2022-08-14T00:24:12;3.30;;;2.75;;
20697;SDS011;10508;50.956;4.640;2022-08-14T00:26:38;3.80;;;2.70;;
20697;SDS011;10508;50.956;4.640;2022-08-14T00:29:03;4.07;;;2.75;;
20697;SDS011;10508;50.956;4.640;2022-08-14T00:31:29;4.03;;;2.70;;
20697;SDS011;10508;50.956;4.640;2022-08-14T00:33:55;6.32;;;3.17;;
20697;SDS011;10508;50.956;4.640;2022-08-14T00:36:21;3.70;;;2.50;;
20697;SDS011;10508;50.956;4.640;2022-08-14T00:38:47;3.08;;;2.30;;
20697;SDS011;10508;50.956;4.640;2022-08-14T00:41:13;6.13;;;3.10;;
20697;SDS011;10508;50.956;4.640;2022-08-14T00:43:39;5.28;;;2.03;;
20697;SDS011;10508;50.956;4.640;2022-08-14T00:46:07;3.08;;;2.78;;
20697;SDS011;10508;50.956;4.640;2022-08-14T00:48:34;3.55;;;2.45;;
20697;SDS011;10508;50.956;4.640;2022-08-14T00:51:02;4.05;;;2.92;;
20697;SDS011;10508;50.956;4.640;2022-08-14T00:53:29;5.93;;;2.67;;
20697;SDS011;10508;50.956;4.640;2022-08-14T00:55:55;3.90;;;2.97;;
20697;SDS011;10508;50.956;4.640;2022-08-14T00:58:21;3.72;;;3.03;;
20697;SDS011;10508;50.956;4.640;2022-08-14T01:01:03;3.72;;;3.05;;
20697;SDS011;10508;50.956;4.640;2022-08-14T01:03:33;3.60;;;3.10;;
20697;SDS011;10508;50.956;4.640;2022-08-14T01:06:02;4.28;;;2.75;;
20697;SDS011;10508;50.956;4.640;2022-08-14T01:08:29;5.80;;;2.97;;
20697;SDS011;10508;50.956;4.640;2022-08-14T01:10:56;2.70;;;2.50;;
20697;SDS011;10508;50.956;4.640;2022-08-14T01:13:24;4.03;;;2.85;;
20697;SDS011;10508;50.956;4.640;2022-08-14T01:15:56;5.15;;;3.08;;
20697;SDS011;10508;50.956;4.640;2022-08-14T01:18:25;7.68;;;3.20;;
20697;SDS011;10508;50.956;4.640;2022-08-14T01:21:11;3.45;;;2.75;;
20697;SDS011;10508;50.956;4.640;2022-08-14T01:23:44;4.20;;;2.63;;
20697;SDS011;10508;50.956;4.640;2022-08-14T01:26:13;2.97;;;2.50;;
20697;SDS011;10508;50.956;4.640;2022-08-14T01:28:44;5.50;;;2.83;;
20697;SDS011;10508;50.956;4.640;2022-08-14T01:31:13;6.68;;;2.78;;
20697;SDS011;10508;50.956;4.640;2022-08-14T01:33:41;3.95;;;3.10;;
20697;SDS011;10508;50.956;4.640;2022-08-14T01:36:10;4.72;;;3.30;;
20697;SDS011;10508;50.956;4.640;2022-08-14T01:38:37;4.20;;;3.20;;
20697;SDS011;10508;50.956;4.640;2022-08-14T01:41:05;5.47;;;3.25;;
20697;SDS011;10508;50.956;4.640;2022-08-14T01:43:40;3.83;;;2.90;;
20697;SDS011;10508;50.956;4.640;2022-08-14T01:46:09;6.00;;;3.35;;
20697;SDS011;10508;50.956;4.640;2022-08-14T01:48:35;3.75;;;3.00;;
20697;SDS011;10508;50.956;4.640;2022-08-14T01:51:03;4.70;;;3.25;;
20697;SDS011;10508;50.956;4.640;2022-08-14T01:53:30;5.47;;;3.42;;
20697;SDS011;10508;50.956;4.640;2022-08-14T01:55:56;5.30;;;2.85;;
20697;SDS011;10508;50.956;4.640;2022-08-14T01:58:25;4.03;;;2.97;;
20697;SDS011;10508;50.956;4.640;2022-08-14T02:00:53;3.58;;;3.17;;
20697;SDS011;10508;50.956;4.640;2022-08-14T02:03:20;8.18;;;3.40;;
20697;SDS011;10508;50.956;4.640;2022-08-14T02:05:50;10.40;;;3.17;;
20697;SDS011;10508;50.956;4.640;2022-08-14T02:08:16;6.22;;;3.25;;
20697;SDS011;10508;50.956;4.640;2022-08-14T02:10:41;4.40;;;3.42;;
20697;SDS011;10508;50.956;4.640;2022-08-14T02:13:08;6.65;;;3.60;;
20697;SDS011;10508;50.956;4.640;2022-08-14T02:15:34;5.00;;;3.42;;
20697;SDS011;10508;50.956;4.640;2022-08-14T02:18:00;4.72;;;3.28;;
20697;SDS011;10508;50.956;4.640;2022-08-14T02:20:31;8.55;;;3.60;;
20697;SDS011;10508;50.956;4.640;2022-08-14T02:22:58;3.97;;;3.28;;
20697;SDS011;10508;50.956;4.640;2022-08-14T02:25:24;5.05;;;3.65;;
20697;SDS011;10508;50.956;4.640;2022-08-14T02:27:50;5.28;;;3.15;;
20697;SDS011;10508;50.956;4.640;2022-08-14T02:30:20;5.88;;;3.20;;
20697;SDS011;10508;50.956;4.640;2022-08-14T02:32:48;7.78;;;3.78;;
20697;SDS011;10508;50.956;4.640;2022-08-14T02:35:15;3.65;;;3.05;;
20697;SDS011;10508;50.956;4.640;2022-08-14T02:37:43;4.68;;;3.28;;
20697;SDS011;10508;50.956;4.640;2022-08-14T02:40:09;6.57;;;3.42;;
20697;SDS011;10508;50.956;4.640;2022-08-14T02:42:36;8.38;;;3.72;;
20697;SDS011;10508;50.956;4.640;2022-08-14T02:45:03;4.13;;;3.28;;
20697;SDS011;10508;50.956;4.640;2022-08-14T02:47:30;3.95;;;3.53;;
20697;SDS011;10508;50.956;4.640;2022-08-14T02:49:55;3.80;;;3.28;;
20697;SDS011;10508;50.956;4.640;2022-08-14T02:52:21;4.68;;;3.30;;
20697;SDS011;10508;50.956;4.640;2022-08-14T02:54:47;5.50;;;3.55;;
20697;SDS011;10508;50.956;4.640;2022-08-14T02:57:13;5.55;;;4.05;;
20697;SDS011;10508;50.956;4.640;2022-08-14T02:59:39;12.25;;;4.38;;
20697;SDS011;10508;50.956;4.640;2022-08-14T03:02:05;4.38;;;3.38;;
20697;SDS011;10508;50.956;4.640;2022-08-14T03:04:31;5.88;;;3.85;;
20697;SDS011;10508;50.956;4.640;2022-08-14T03:06:57;3.97;;;3.50;;
20697;SDS011;10508;50.956;4.640;2022-08-14T03:09:23;4.78;;;3.67;;
20697;SDS011;10508;50.956;4.640;2022-08-14T03:11:48;6.47;;;3.83;;
20697;SDS011;10508;50.956;4.640;2022-08-14T03:14:14;5.63;;;3.97;;
20697;SDS011;10508;50.956;4.640;2022-08-14T03:16:40;8.00;;;4.05;;
20697;SDS011;10508;50.956;4.640;2022-08-14T03:19:06;4.65;;;3.70;;
20697;SDS011;10508;50.956;4.640;2022-08-14T03:21:33;7.18;;;4.03;;
20697;SDS011;10508;50.956;4.640;2022-08-14T03:24:01;7.55;;;4.22;;
20697;SDS011;10508;50.956;4.640;2022-08-14T03:26:36;8.85;;;4.70;;
20697;SDS011;10508;50.956;4.640;2022-08-14T03:29:07;3.78;;;3.35;;
20697;SDS011;10508;50.956;4.640;2022-08-14T03:31:34;6.10;;;4.10;;
20697;SDS011;10508;50.956;4.640;2022-08-14T03:34:02;5.88;;;4.10;;
20697;SDS011;10508;50.956;4.640;2022-08-14T03:36:28;7.03;;;3.42;;
20697;SDS011;10508;50.956;4.640;2022-08-14T03:38:56;6.25;;;3.80;;
20697;SDS011;10508;50.956;4.640;2022-08-14T03:41:24;7.53;;;4.05;;
20697;SDS011;10508;50.956;4.640;2022-08-14T03:43:55;4.78;;;3.65;;
20697;SDS011;10508;50.956;4.640;2022-08-14T03:46:23;5.18;;;3.95;;
20697;SDS011;10508;50.956;4.640;2022-08-14T03:48:52;6.75;;;3.40;;
20697;SDS011;10508;50.956;4.640;2022-08-14T03:51:18;6.68;;;3.50;;
20697;SDS011;10508;50.956;4.640;2022-08-14T03:53:46;6.70;;;3.88;;
20697;SDS011;10508;50.956;4.640;2022-08-14T03:56:13;4.78;;;3.85;;
20697;SDS011;10508;50.956;4.640;2022-08-14T03:58:41;5.25;;;4.00;;
20697;SDS011;10508;50.956;4.640;2022-08-14T04:01:09;4.68;;;3.58;;
20697;SDS011;10508;50.956;4.640;2022-08-14T04:03:36;10.02;;;3.95;;
20697;SDS011;10508;50.956;4.640;2022-08-14T04:06:02;8.35;;;3.80;;
20697;SDS011;10508;50.956;4.640;2022-08-14T04:08:28;7.65;;;3.75;;
20697;SDS011;10508;50.956;4.640;2022-08-14T04:10:54;7.43;;;3.72;;
20697;SDS011;10508;50.956;4.640;2022-08-14T04:13:21;6.15;;;3.65;;
20697;SDS011;10508;50.956;4.640;2022-08-14T04:15:47;9.18;;;4.18;;
20697;SDS011;10508;50.956;4.640;2022-08-14T04:18:13;6.18;;;3.90;;
20697;SDS011;10508;50.956;4.640;2022-08-14T04:20:39;6.85;;;4.00;;
20697;SDS011;10508;50.956;4.640;2022-08-14T04:23:07;7.05;;;4.60;;
20697;SDS011;10508;50.956;4.640;2022-08-14T04:25:33;7.25;;;4.40;;
20697;SDS011;10508;50.956;4.640;2022-08-14T04:28:00;5.18;;;3.78;;
20697;SDS011;10508;50.956;4.640;2022-08-14T04:30:30;5.07;;;3.95;;
20697;SDS011;10508;50.956;4.640;2022-08-14T04:32:57;7.10;;;3.72;;
20697;SDS011;10508;50.956;4.640;2022-08-14T04:35:23;4.80;;;3.67;;
20697;SDS011;10508;50.956;4.640;2022-08-14T04:37:49;7.95;;;3.60;;
20697;SDS011;10508;50.956;4.640;2022-08-14T04:40:33;4.43;;;3.90;;
20697;SDS011;10508;50.956;4.640;2022-08-14T04:43:17;7.57;;;4.25;;
20697;SDS011;10508;50.956;4.640;2022-08-14T04:46:14;10.98;;;4.22;;
20697;SDS011;10508;50.956;4.640;2022-08-14T04:48:42;5.38;;;3.90;;
20697;SDS011;10508;50.956;4.640;2022-08-14T04:51:09;6.15;;;4.35;;
20697;SDS011;10508;50.956;4.640;2022-08-14T04:53:37;9.50;;;3.80;;
20697;SDS011;10508;50.956;4.640;2022-08-14T04:56:06;4.63;;;3.90;;
20697;SDS011;10508;50.956;4.640;2022-08-14T04:58:34;5.68;;;4.55;;
20697;SDS011;10508;50.956;4.640;2022-08-14T05:01:01;9.55;;;4.32;;
20697;SDS011;10508;50.956;4.640;2022-08-14T05:03:31;5.60;;;4.15;;
20697;SDS011;10508;50.956;4.640;2022-08-14T05:05:59;7.70;;;4.13;;
20697;SDS011;10508;50.956;4.640;2022-08-14T05:08:27;4.95;;;3.70;;
20697;SDS011;10508;50.956;4.640;2022-08-14T05:10:55;8.48;;;4.30;;
20697;SDS011;10508;50.956;4.640;2022-08-14T05:13:23;6.95;;;3.97;;
20697;SDS011;10508;50.956;4.640;2022-08-14T05:15:50;6.60;;;4.32;;
20697;SDS011;10508;50.956;4.640;2022-08-14T05:18:18;5.45;;;3.60;;
20697;SDS011;10508;50.956;4.640;2022-08-14T05:20:51;5.28;;;4.00;;
20697;SDS011;10508;50.956;4.640;2022-08-14T05:23:19;6.45;;;3.97;;
20697;SDS011;10508;50.956;4.640;2022-08-14T05:25:46;9.25;;;4.18;;
20697;SDS011;10508;50.956;4.640;2022-08-14T05:28:15;5.00;;;3.88;;
20697;SDS011;10508;50.956;4.640;2022-08-14T05:30:46;7.22;;;4.03;;
20697;SDS011;10508;50.956;4.640;2022-08-14T05:33:13;6.47;;;4.10;;
20697;SDS011;10508;50.956;4.640;2022-08-14T05:35:41;6.18;;;4.63;;
20697;SDS011;10508;50.956;4.640;2022-08-14T05:38:08;6.32;;;4.38;;
20697;SDS011;10508;50.956;4.640;2022-08-14T05:40:37;6.68;;;4.50;;
20697;SDS011;10508;50.956;4.640;2022-08-14T05:43:04;4.07;;;3.60;;
20697;SDS011;10508;50.956;4.640;2022-08-14T05:45:30;15.27;;;4.35;;
20697;SDS011;10508;50.956;4.640;2022-08-14T05:47:56;6.30;;;4.53;;
20697;SDS011;10508;50.956;4.640;2022-08-14T05:50:21;6.22;;;4.65;;
20697;SDS011;10508;50.956;4.640;2022-08-14T05:52:48;5.45;;;4.05;;
20697;SDS011;10508;50.956;4.640;2022-08-14T05:55:14;4.65;;;3.97;;
20697;SDS011;10508;50.956;4.640;2022-08-14T05:57:54;6.15;;;3.78;;
20697;SDS011;10508;50.956;4.640;2022-08-14T06:00:38;4.85;;;4.35;;
20697;SDS011;10508;50.956;4.640;2022-08-14T06:03:07;6.28;;;4.60;;
20697;SDS011;10508;50.956;4.640;2022-08-14T06:05:39;5.78;;;4.53;;
20697;SDS011;10508;50.956;4.640;2022-08-14T06:08:12;9.30;;;5.15;;
20697;SDS011;10508;50.956;4.640;2022-08-14T06:10:40;9.05;;;4.95;;
20697;SDS011;10508;50.956;4.640;2022-08-14T06:13:06;8.20;;;4.65;;
20697;SDS011;10508;50.956;4.640;2022-08-14T06:15:32;10.23;;;4.53;;
20697;SDS011;10508;50.956;4.640;2022-08-14T06:17:57;5.57;;;4.30;;
20697;SDS011;10508;50.956;4.640;2022-08-14T06:20:23;9.40;;;4.50;;
20697;SDS011;10508;50.956;4.640;2022-08-14T06:22:49;8.40;;;4.40;;
20697;SDS011;10508;50.956;4.640;2022-08-14T06:25:15;7.10;;;3.97;;
20697;SDS011;10508;50.956;4.640;2022-08-14T06:27:43;8.30;;;4.30;;
20697;SDS011;10508;50.956;4.640;2022-08-14T06:30:12;7.68;;;4.38;;
20697;SDS011;10508;50.956;4.640;2022-08-14T06:32:43;4.65;;;3.67;;
20697;SDS011;10508;50.956;4.640;2022-08-14T06:35:10;5.90;;;3.90;;
20697;SDS011;10508;50.956;4.640;2022-08-14T06:37:41;6.55;;;4.53;;
20697;SDS011;10508;50.956;4.640;2022-08-14T06:40:12;5.00;;;3.67;;
20697;SDS011;10508;50.956;4.640;2022-08-14T06:42:39;3.95;;;3.20;;
20697;SDS011;10508;50.956;4.640;2022-08-14T06:45:05;4.38;;;3.25;;
20697;SDS011;10508;50.956;4.640;2022-08-14T06:47:35;7.75;;;4.13;;
20697;SDS011;10508;50.956;4.640;2022-08-14T06:50:06;6.25;;;4.10;;
20697;SDS011;10508;50.956;4.640;2022-08-14T06:52:40;4.63;;;3.30;;
20697;SDS011;10508;50.956;4.640;2022-08-14T06:55:07;7.07;;;3.00;;
20697;SDS011;10508;50.956;4.640;2022-08-14T06:57:34;12.18;;;4.18;;
20697;SDS011;10508;50.956;4.640;2022-08-14T07:00:03;4.05;;;2.83;;
20697;SDS011;10508;50.956;4.640;2022-08-14T07:02:31;5.45;;;3.83;;
20697;SDS011;10508;50.956;4.640;2022-08-14T07:05:15;6.47;;;4.13;;
20697;SDS011;10508;50.956;4.640;2022-08-14T07:07:59;7.93;;;4.32;;
20697;SDS011;10508;50.956;4.640;2022-08-14T07:10:25;6.88;;;4.20;;
20697;SDS011;10508;50.956;4.640;2022-08-14T07:12:51;6.32;;;3.42;;
20697;SDS011;10508;50.956;4.640;2022-08-14T07:15:17;7.65;;;3.67;;
20697;SDS011;10508;50.956;4.640;2022-08-14T07:18:02;6.20;;;4.00;;
20697;SDS011;10508;50.956;4.640;2022-08-14T07:20:28;6.53;;;4.47;;
20697;SDS011;10508;50.956;4.640;2022-08-14T07:22:54;6.38;;;3.88;;
20697;SDS011;10508;50.956;4.640;2022-08-14T07:25:24;7.30;;;3.50;;
20697;SDS011;10508;50.956;4.640;2022-08-14T07:27:50;4.45;;;3.53;;
20697;SDS011;10508;50.956;4.640;2022-08-14T07:30:16;4.60;;;3.22;;
20697;SDS011;10508;50.956;4.640;2022-08-14T07:32:42;4.68;;;3.40;;
20697;SDS011;10508;50.956;4.640;2022-08-14T07:35:08;6.00;;;3.40;;
20697;SDS011;10508;50.956;4.640;2022-08-14T07:37:33;4.70;;;3.75;;
20697;SDS011;10508;50.956;4.640;2022-08-14T07:40:00;4.13;;;2.95;;
20697;SDS011;10508;50.956;4.640;2022-08-14T07:42:26;4.55;;;3.78;;
20697;SDS011;10508;50.956;4.640;2022-08-14T07:44:53;6.18;;;3.35;;
20697;SDS011;10508;50.956;4.640;2022-08-14T07:47:19;3.72;;;3.30;;
20697;SDS011;10508;50.956;4.640;2022-08-14T07:49:50;7.30;;;3.30;;
20697;SDS011;10508;50.956;4.640;2022-08-14T07:52:25;3.25;;;2.95;;
20697;SDS011;10508;50.956;4.640;2022-08-14T07:54:52;6.22;;;3.00;;
20697;SDS011;10508;50.956;4.640;2022-08-14T07:57:18;4.00;;;3.42;;
20697;SDS011;10508;50.956;4.640;2022-08-14T07:59:44;2.80;;;2.60;;
20697;SDS011;10508;50.956;4.640;2022-08-14T08:02:12;4.80;;;3.70;;
20697;SDS011;10508;50.956;4.640;2022-08-14T08:04:40;4.88;;;3.58;;
20697;SDS011;10508;50.956;4.640;2022-08-14T08:07:09;3.85;;;3.33;;
20697;SDS011;10508;50.956;4.640;2022-08-14T08:09:35;7.43;;;3.28;;
20697;SDS011;10508;50.956;4.640;2022-08-14T08:12:03;4.30;;;3.60;;
20697;SDS011;10508;50.956;4.640;2022-08-14T08:14:34;3.58;;;2.60;;
20697;SDS011;10508;50.956;4.640;2022-08-14T08:17:02;4.45;;;3.08;;
20697;SDS011;10508;50.956;4.640;2022-08-14T08:19:28;13.43;;;2.90;;
20697;SDS011;10508;50.956;4.640;2022-08-14T08:21:54;3.90;;;3.08;;
20697;SDS011;10508;50.956;4.640;2022-08-14T08:24:22;3.40;;;2.92;;
20697;SDS011;10508;50.956;4.640;2022-08-14T08:26:47;5.20;;;3.00;;
20697;SDS011;10508;50.956;4.640;2022-08-14T08:29:20;4.72;;;3.50;;
20697;SDS011;10508;50.956;4.640;2022-08-14T08:31:49;4.30;;;3.10;;
20697;SDS011;10508;50.956;4.640;2022-08-14T08:34:18;4.03;;;2.97;;
20697;SDS011;10508;50.956;4.640;2022-08-14T08:36:45;5.53;;;2.95;;
20697;SDS011;10508;50.956;4.640;2022-08-14T08:39:11;5.75;;;2.90;;
20697;SDS011;10508;50.956;4.640;2022-08-14T08:44:10;5.60;;;2.90;;
20697;SDS011;10508;50.956;4.640;2022-08-14T08:46:36;5.40;;;2.83;;
20697;SDS011;10508;50.956;4.640;2022-08-14T08:49:01;5.53;;;3.22;;
20697;SDS011;10508;50.956;4.640;2022-08-14T08:51:31;3.13;;;2.83;;
20697;SDS011;10508;50.956;4.640;2022-08-14T09:01:45;3.53;;;2.80;;
20697;SDS011;10508;50.956;4.640;2022-08-14T09:04:16;3.90;;;2.67;;
20697;SDS011;10508;50.956;4.640;2022-08-14T09:06:44;6.57;;;2.60;;
20697;SDS011;10508;50.956;4.640;2022-08-14T09:09:24;4.45;;;2.28;;
20697;SDS011;10508;50.956;4.640;2022-08-14T09:11:52;3.67;;;2.20;;
20697;SDS011;10508;50.956;4.640;2022-08-14T09:14:22;2.40;;;2.10;;
20697;SDS011;10508;50.956;4.640;2022-08-14T09:16:49;2.72;;;2.38;;
20697;SDS011;10508;50.956;4.640;2022-08-14T09:19:15;4.55;;;2.58;;
20697;SDS011;10508;50.956;4.640;2022-08-14T09:21:42;15.32;;;2.85;;
20697;SDS011;10508;50.956;4.640;2022-08-14T09:24:08;6.10;;;2.33;;
20697;SDS011;10508;50.956;4.640;2022-08-14T09:26:34;3.45;;;2.38;;
20697;SDS011;10508;50.956;4.640;2022-08-14T09:29:02;3.05;;;2.40;;
20697;SDS011;10508;50.956;4.640;2022-08-14T09:31:29;2.40;;;2.15;;
20697;SDS011;10508;50.956;4.640;2022-08-14T09:34:07;2.50;;;2.20;;
20697;SDS011;10508;50.956;4.640;2022-08-14T09:45:13;3.08;;;2.03;;
20697;SDS011;10508;50.956;4.640;2022-08-14T09:52:50;2.83;;;1.90;;
20697;SDS011;10508;50.956;4.640;2022-08-14T09:55:19;3.67;;;2.30;;
20697;SDS011;10508;50.956;4.640;2022-08-14T09:57:47;2.05;;;1.83;;
20697;SDS011;10508;50.956;4.640;2022-08-14T10:00:14;2.65;;;2.10;;
20697;SDS011;10508;50.956;4.640;2022-08-14T10:02:52;2.70;;;2.05;;
20697;SDS011;10508;50.956;4.640;2022-08-14T10:05:31;2.40;;;1.80;;
20697;SDS011;10508;50.956;4.640;2022-08-14T10:07:59;6.53;;;2.15;;
20697;SDS011;10508;50.956;4.640;2022-08-14T10:10:27;3.60;;;2.08;;
20697;SDS011;10508;50.956;4.640;2022-08-14T10:12:53;2.20;;;2.00;;
20697;SDS011;10508;50.956;4.640;2022-08-14T10:15:20;4.10;;;2.22;;
20697;SDS011;10508;50.956;4.640;2022-08-14T10:17:47;2.33;;;1.92;;
20697;SDS011;10508;50.956;4.640;2022-08-14T10:20:14;2.20;;;2.00;;
20697;SDS011;10508;50.956;4.640;2022-08-14T10:22:41;2.45;;;2.00;;
20697;SDS011;10508;50.956;4.640;2022-08-14T10:25:09;2.08;;;1.92;;
20697;SDS011;10508;50.956;4.640;2022-08-14T10:27:38;1.88;;;1.77;;
20697;SDS011;10508;50.956;4.640;2022-08-14T10:30:11;2.30;;;2.10;;
20697;SDS011;10508;50.956;4.640;2022-08-14T10:32:45;3.00;;;2.13;;
20697;SDS011;10508;50.956;4.640;2022-08-14T10:35:13;2.10;;;1.90;;
20697;SDS011;10508;50.956;4.640;2022-08-14T10:37:50;5.13;;;2.13;;
20697;SDS011;10508;50.956;4.640;2022-08-14T10:40:30;2.95;;;2.00;;
20697;SDS011;10508;50.956;4.640;2022-08-14T10:42:56;2.47;;;1.90;;
20697;SDS011;10508;50.956;4.640;2022-08-14T10:47:50;2.38;;;1.90;;
20697;SDS011;10508;50.956;4.640;2022-08-14T10:50:16;3.20;;;2.00;;
20697;SDS011;10508;50.956;4.640;2022-08-14T10:52:58;1.90;;;1.80;;
20697;SDS011;10508;50.956;4.640;2022-08-14T10:55:35;2.45;;;1.90;;
20697;SDS011;10508;50.956;4.640;2022-08-14T10:58:06;1.98;;;1.67;;
20697;SDS011;10508;50.956;4.640;2022-08-14T11:00:37;4.13;;;2.05;;
20697;SDS011;10508;50.956;4.640;2022-08-14T11:03:05;2.28;;;2.08;;
20697;SDS011;10508;50.956;4.640;2022-08-14T11:05:50;1.60;;;1.50;;
20697;SDS011;10508;50.956;4.640;2022-08-14T11:08:17;2.38;;;1.50;;
20697;SDS011;10508;50.956;4.640;2022-08-14T11:10:57;3.38;;;1.90;;
20697;SDS011;10508;50.956;4.640;2022-08-14T11:13:26;2.40;;;1.60;;
20697;SDS011;10508;50.956;4.640;2022-08-14T11:15:54;2.08;;;1.77;;
20697;SDS011;10508;50.956;4.640;2022-08-14T11:18:24;1.58;;;1.48;;
20697;SDS011;10508;50.956;4.640;2022-08-14T11:20:53;1.92;;;1.55;;
20697;SDS011;10508;50.956;4.640;2022-08-14T11:23:20;2.72;;;1.70;;
20697;SDS011;10508;50.956;4.640;2022-08-14T11:25:50;1.52;;;1.42;;
20697;SDS011;10508;50.956;4.640;2022-08-14T11:28:18;1.90;;;1.70;;
20697;SDS011;10508;50.956;4.640;2022-08-14T11:30:48;8.20;;;2.00;;
20697;SDS011;10508;50.956;4.640;2022-08-14T11:33:14;1.67;;;1.58;;
20697;SDS011;10508;50.956;4.640;2022-08-14T11:35:40;1.98;;;1.65;;
20697;SDS011;10508;50.956;4.640;2022-08-14T11:38:07;2.70;;;1.67;;
20697;SDS011;10508;50.956;4.640;2022-08-14T11:40:36;2.60;;;1.60;;
20697;SDS011;10508;50.956;4.640;2022-08-14T11:43:04;3.58;;;1.50;;
20697;SDS011;10508;50.956;4.640;2022-08-14T11:45:31;1.50;;;1.40;;
20697;SDS011;10508;50.956;4.640;2022-08-14T11:48:24;1.90;;;1.35;;
20697;SDS011;10508;50.956;4.640;2022-08-14T11:50:49;2.83;;;1.77;;
20697;SDS011;10508;50.956;4.640;2022-08-14T11:53:23;1.55;;;1.45;;
20697;SDS011;10508;50.956;4.640;2022-08-14T11:58:27;4.05;;;1.75;;
20697;SDS011;10508;50.956;4.640;2022-08-14T12:00:57;2.30;;;1.38;;
20697;SDS011;10508;50.956;4.640;2022-08-14T12:03:40;2.00;;;1.50;;
20697;SDS011;10508;50.956;4.640;2022-08-14T12:06:11;1.52;;;1.38;;
20697;SDS011;10508;50.956;4.640;2022-08-14T12:08:38;1.63;;;1.52;;
20697;SDS011;10508;50.956;4.640;2022-08-14T12:11:05;2.42;;;1.83;;
20697;SDS011;10508;50.956;4.640;2022-08-14T12:13:32;1.42;;;1.33;;
20697;SDS011;10508;50.956;4.640;2022-08-14T12:16:04;1.70;;;1.45;;
20697;SDS011;10508;50.956;4.640;2022-08-14T12:18:32;2.60;;;1.42;;
20697;SDS011;10508;50.956;4.640;2022-08-14T12:21:20;1.42;;;1.30;;
20697;SDS011;10508;50.956;4.640;2022-08-14T12:24:09;1.70;;;1.40;;
20697;SDS011;10508;50.956;4.640;2022-08-14T12:26:34;2.70;;;1.40;;
20697;SDS011;10508;50.956;4.640;2022-08-14T12:29:09;2.72;;;1.77;;
20697;SDS011;10508;50.956;4.640;2022-08-14T12:31:37;1.52;;;1.40;;
20697;SDS011;10508;50.956;4.640;2022-08-14T12:34:04;2.40;;;1.65;;
20697;SDS011;10508;50.956;4.640;2022-08-14T12:36:35;1.65;;;1.55;;
20697;SDS011;10508;50.956;4.640;2022-08-14T12:39:18;1.52;;;1.42;;
20697;SDS011;10508;50.956;4.640;2022-08-14T12:41:50;3.20;;;2.58;;
20697;SDS011;10508;50.956;4.640;2022-08-14T12:44:30;1.67;;;1.58;;
20697;SDS011;10508;50.956;4.640;2022-08-14T12:47:05;4.60;;;1.40;;
20697;SDS011;10508;50.956;4.640;2022-08-14T12:49:35;1.92;;;1.50;;
20697;SDS011;10508;50.956;4.640;2022-08-14T12:52:01;2.70;;;1.85;;
20697;SDS011;10508;50.956;4.640;2022-08-14T12:54:28;1.70;;;1.50;;
20697;SDS011;10508;50.956;4.640;2022-08-14T12:57:04;1.50;;;1.40;;
20697;SDS011;10508;50.956;4.640;2022-08-14T12:59:32;7.47;;;1.80;;
20697;SDS011;10508;50.956;4.640;2022-08-14T13:01:59;1.48;;;1.38;;
20697;SDS011;10508;50.956;4.640;2022-08-14T13:04:26;6.40;;;1.80;;
20697;SDS011;10508;50.956;4.640;2022-08-14T13:06:53;1.50;;;1.27;;
20697;SDS011;10508;50.956;4.640;2022-08-14T13:09:19;1.92;;;1.52;;
20697;SDS011;10508;50.956;4.640;2022-08-14T13:11:47;2.50;;;1.55;;
20697;SDS011;10508;50.956;4.640;2022-08-14T13:14:16;2.20;;;1.60;;
20697;SDS011;10508;50.956;4.640;2022-08-14T13:16:53;1.50;;;1.40;;
20697;SDS011;10508;50.956;4.640;2022-08-14T13:19:19;1.88;;;1.67;;
20697;SDS011;10508;50.956;4.640;2022-08-14T13:21:50;3.88;;;2.20;;
20697;SDS011;10508;50.956;4.640;2022-08-14T13:24:20;4.25;;;1.80;;
20697;SDS011;10508;50.956;4.640;2022-08-14T13:26:48;1.90;;;1.58;;
20697;SDS011;10508;50.956;4.640;2022-08-14T13:29:19;1.92;;;1.73;;
20697;SDS011;10508;50.956;4.640;2022-08-14T13:31:53;2.10;;;1.90;;
20697;SDS011;10508;50.956;4.640;2022-08-14T13:34:20;1.50;;;1.40;;
20697;SDS011;10508;50.956;4.640;2022-08-14T13:36:47;2.30;;;1.80;;
20697;SDS011;10508;50.956;4.640;2022-08-14T13:39:17;1.70;;;1.60;;
20697;SDS011;10508;50.956;4.640;2022-08-14T13:41:44;10.23;;;1.75;;
20697;SDS011;10508;50.956;4.640;2022-08-14T13:44:14;2.58;;;1.80;;
20697;SDS011;10508;50.956;4.640;2022-08-14T13:46:43;3.53;;;1.75;;
20697;SDS011;10508;50.956;4.640;2022-08-14T13:49:10;2.55;;;1.77;;
20697;SDS011;10508;50.956;4.640;2022-08-14T13:51:39;2.60;;;1.83;;
20697;SDS011;10508;50.956;4.640;2022-08-14T13:54:13;2.20;;;2.00;;
20697;SDS011;10508;50.956;4.640;2022-08-14T13:56:45;2.67;;;2.47;;
20697;SDS011;10508;50.956;4.640;2022-08-14T13:59:11;1.65;;;1.55;;
20697;SDS011;10508;50.956;4.640;2022-08-14T14:01:38;1.63;;;1.52;;
20697;SDS011;10508;50.956;4.640;2022-08-14T14:04:05;2.65;;;1.65;;
20697;SDS011;10508;50.956;4.640;2022-08-14T14:06:35;2.85;;;2.00;;
20697;SDS011;10508;50.956;4.640;2022-08-14T14:09:02;2.90;;;1.77;;
20697;SDS011;10508;50.956;4.640;2022-08-14T14:11:28;4.78;;;1.92;;
20697;SDS011;10508;50.956;4.640;2022-08-14T14:13:55;2.15;;;1.63;;
20697;SDS011;10508;50.956;4.640;2022-08-14T14:16:25;1.85;;;1.63;;
20697;SDS011;10508;50.956;4.640;2022-08-14T14:18:52;3.65;;;1.67;;
20697;SDS011;10508;50.956;4.640;2022-08-14T14:21:20;1.85;;;1.75;;
20697;SDS011;10508;50.956;4.640;2022-08-14T14:23:48;5.38;;;1.67;;
20697;SDS011;10508;50.956;4.640;2022-08-14T14:26:32;2.95;;;1.40;;
20697;SDS011;10508;50.956;4.640;2022-08-14T14:28:58;3.88;;;1.73;;
20697;SDS011;10508;50.956;4.640;2022-08-14T14:31:26;2.10;;;1.60;;
20697;SDS011;10508;50.956;4.640;2022-08-14T14:33:57;6.65;;;1.70;;
20697;SDS011;10508;50.956;4.640;2022-08-14T14:36:25;3.33;;;1.80;;
20697;SDS011;10508;50.956;4.640;2022-08-14T14:38:58;2.30;;;1.58;;
20697;SDS011;10508;50.956;4.640;2022-08-14T14:41:27;2.42;;;1.58;;
20697;SDS011;10508;50.956;4.640;2022-08-14T14:43:54;1.70;;;1.60;;
20697;SDS011;10508;50.956;4.640;2022-08-14T14:46:23;4.05;;;2.20;;
20697;SDS011;10508;50.956;4.640;2022-08-14T14:48:51;1.67;;;1.58;;
20697;SDS011;10508;50.956;4.640;2022-08-14T14:51:17;1.83;;;1.45;;
20697;SDS011;10508;50.956;4.640;2022-08-14T14:53:46;1.40;;;1.30;;
20697;SDS011;10508;50.956;4.640;2022-08-14T14:56:11;3.90;;;1.50;;
20697;SDS011;10508;50.956;4.640;2022-08-14T14:58:38;2.28;;;1.45;;
20697;SDS011;10508;50.956;4.640;2022-08-14T15:01:06;4.43;;;1.65;;
20697;SDS011;10508;50.956;4.640;2022-08-14T15:03:33;1.80;;;1.52;;
20697;SDS011;10508;50.956;4.640;2022-08-14T15:06:00;1.95;;;1.52;;
20697;SDS011;10508;50.956;4.640;2022-08-14T15:08:27;2.25;;;1.60;;
20697;SDS011;10508;50.956;4.640;2022-08-14T15:10:54;1.60;;;1.50;;
20697;SDS011;10508;50.956;4.640;2022-08-14T15:13:20;3.45;;;1.60;;
20697;SDS011;10508;50.956;4.640;2022-08-14T15:15:46;1.87;;;1.50;;
20697;SDS011;10508;50.956;4.640;2022-08-14T15:18:12;1.48;;;1.38;;
20697;SDS011;10508;50.956;4.640;2022-08-14T15:20:37;2.85;;;1.50;;
20697;SDS011;10508;50.956;4.640;2022-08-14T15:23:03;1.85;;;1.60;;
20697;SDS011;10508;50.956;4.640;2022-08-14T15:25:30;1.63;;;1.52;;
20697;SDS011;10508;50.956;4.640;2022-08-14T15:27:57;2.30;;;1.60;;